Time;durP1;ratioP1;P1;durP2;ratioP2;P2;SDS_P1;SDS_P2;PMS_P1;PMS_P2;Temp;Humidity;BMP_temperature;BMP_pressure;BME280_temperature;BME280_humidity;BME280_pressure;Samples;Min_cycle;Max_cycle;Signal;HPM_P1;HPM_P2
2022/05/29 00:00:48;;;;;;;8.30;1.27;;;;;;;12.03;53.93;98492.16;4152849;28;20222;-56
2022/05/29 00:02:50;;;;;;;0.85;0.60;;;;;;;12.00;53.51;98483.63;4153351;28;20288;-58
2022/05/29 00:04:51;;;;;;;1.33;0.90;;;;;;;11.99;54.00;98481.97;4154343;28;20205;-58
2022/05/29 00:06:55;;;;;;;4.95;0.82;;;;;;;11.94;54.22;98490.16;4151247;28;20283;-58
2022/05/29 00:08:57;;;;;;;3.50;1.70;;;;;;;12.07;54.10;98487.81;4154315;28;20324;-58
2022/05/29 00:11:00;;;;;;;1.65;0.93;;;;;;;12.14;54.02;98480.22;4169096;28;20250;-58
2022/05/29 00:13:01;;;;;;;1.23;0.85;;;;;;;12.22;54.07;98479.72;4152401;28;20744;-56
2022/05/29 00:15:03;;;;;;;2.85;1.10;;;;;;;12.33;53.90;98476.00;4154569;28;20339;-56
2022/05/29 00:17:05;;;;;;;0.50;0.50;;;;;;;12.39;53.75;98469.47;4154533;28;20308;-57
2022/05/29 00:19:07;;;;;;;1.27;0.90;;;;;;;12.29;53.74;98469.34;4153583;28;20205;-57
2022/05/29 00:21:09;;;;;;;0.80;0.80;;;;;;;12.34;53.80;98469.41;4151536;28;20260;-56
2022/05/29 00:23:10;;;;;;;1.25;0.70;;;;;;;12.34;53.92;98466.66;4154923;28;20254;-56
2022/05/29 00:25:12;;;;;;;1.75;0.90;;;;;;;12.38;53.93;98469.72;4152043;28;20568;-56
2022/05/29 00:27:16;;;;;;;0.70;0.70;;;;;;;12.34;53.91;98465.81;4152884;28;20196;-56
2022/05/29 00:29:17;;;;;;;1.83;0.85;;;;;;;12.37;54.14;98459.81;4153700;28;20215;-56
2022/05/29 00:31:26;;;;;;;0.65;0.65;;;;;;;12.37;54.00;98466.13;4151653;28;20252;-56
2022/05/29 00:33:27;;;;;;;1.25;0.80;;;;;;;12.34;54.06;98455.69;4152891;28;20213;-56
2022/05/29 00:35:29;;;;;;;0.63;0.63;;;;;;;12.36;53.98;98458.19;4169147;28;20215;-58
2022/05/29 00:37:35;;;;;;;0.70;0.65;;;;;;;12.25;54.18;98456.44;4154384;28;20247;-57
2022/05/29 00:39:37;;;;;;;2.05;1.00;;;;;;;12.28;54.12;98462.22;4167648;28;20203;-57
2022/05/29 00:41:39;;;;;;;1.90;0.70;;;;;;;12.28;54.16;98455.91;4150843;28;20321;-57
2022/05/29 00:43:41;;;;;;;0.75;0.75;;;;;;;12.27;54.23;98452.34;4152794;28;20204;-57
2022/05/29 00:45:56;;;;;;;0.80;0.80;;;;;;;12.33;54.45;98448.56;4151621;28;20206;-57
2022/05/29 00:47:58;;;;;;;1.88;0.90;;;;;;;12.33;54.34;98443.06;4152155;28;20276;-56
2022/05/29 00:49:59;;;;;;;1.65;1.10;;;;;;;12.39;54.52;98442.00;4153139;28;20209;-56
2022/05/29 00:52:10;;;;;;;3.55;0.70;;;;;;;12.38;53.98;98434.03;4151883;28;20201;-56
2022/05/29 00:54:12;;;;;;;0.80;0.80;;;;;;;12.25;54.04;98421.56;4153771;28;20205;-56
2022/05/29 00:56:14;;;;;;;1.52;0.85;;;;;;;12.22;53.80;98418.53;4156650;28;20213;-56
2022/05/29 00:58:16;;;;;;;2.22;1.40;;;;;;;12.15;53.99;98424.25;4151242;28;20207;-56
2022/05/29 01:00:25;;;;;;;0.80;0.80;;;;;;;12.18;53.88;98417.41;4162225;28;20679;-59
2022/05/29 01:02:27;;;;;;;1.27;0.82;;;;;;;12.17;54.10;98416.59;4147390;28;20581;-57
2022/05/29 01:04:31;;;;;;;0.80;0.80;;;;;;;12.19;54.43;98425.41;4148915;28;20205;-58
2022/05/29 01:06:33;;;;;;;2.85;1.13;;;;;;;12.20;54.39;98427.03;4152227;28;20196;-57
2022/05/29 01:08:37;;;;;;;0.98;0.98;;;;;;;12.21;54.40;98423.22;4151848;28;20204;-55
2022/05/29 01:10:53;;;;;;;2.42;1.02;;;;;;;12.19;54.78;98435.53;4165812;28;20568;-58
2022/05/29 01:13:04;;;;;;;1.80;0.80;;;;;;;12.19;54.48;98441.00;4151634;28;20211;-59
2022/05/29 01:15:52;;;;;;;0.73;0.73;;;;;;;12.07;54.24;98432.13;4148470;28;20227;-60
2022/05/29 01:18:04;;;;;;;0.70;0.70;;;;;;;12.01;54.57;98438.66;4127375;28;20715;-61
2022/05/29 01:20:31;;;;;;;1.60;1.25;;;;;;;12.08;54.35;98436.53;4156502;28;20350;-59
2022/05/29 01:22:45;;;;;;;0.77;0.77;;;;;;;11.98;54.74;98429.03;4151535;28;20586;-59
2022/05/29 01:25:00;;;;;;;1.02;1.02;;;;;;;11.94;54.49;98427.91;4153836;28;20196;-60
2022/05/29 01:27:30;;;;;;;2.05;0.95;;;;;;;11.65;55.07;98432.00;4157009;28;20644;-61
2022/05/29 01:29:51;;;;;;;0.77;0.77;;;;;;;11.47;55.51;98432.34;4152343;28;20544;-60
2022/05/29 01:31:57;;;;;;;2.10;1.08;;;;;;;11.56;55.60;98424.50;4152832;28;20197;-60
2022/05/29 01:34:06;;;;;;;0.88;0.80;;;;;;;11.62;55.53;98424.31;4149661;28;20243;-59
2022/05/29 01:36:28;;;;;;;0.93;0.93;;;;;;;11.73;55.43;98420.59;4165201;28;20246;-60
2022/05/29 01:38:31;;;;;;;1.30;1.27;;;;;;;11.85;55.19;98421.25;4151583;28;20569;-61
2022/05/29 01:40:41;;;;;;;0.60;0.60;;;;;;;11.95;55.06;98417.75;4153096;28;20248;-59
2022/05/29 01:42:57;;;;;;;1.90;0.90;;;;;;;11.85;54.94;98417.69;4152716;28;20196;-58
2022/05/29 01:45:03;;;;;;;0.70;0.70;;;;;;;11.87;55.18;98413.59;4153230;28;20700;-60
2022/05/29 01:47:26;;;;;;;1.48;1.20;;;;;;;11.92;55.47;98418.28;4152657;28;20205;-60
2022/05/29 01:49:30;;;;;;;0.68;0.68;;;;;;;11.90;55.33;98426.78;4149507;28;20288;-59
2022/05/29 01:52:04;;;;;;;6.40;1.10;;;;;;;11.84;55.72;98411.38;4166487;28;20230;-58
2022/05/29 01:54:20;;;;;;;1.42;0.80;;;;;;;11.78;55.59;98412.41;4148673;28;20284;-61
2022/05/29 01:56:28;;;;;;;1.10;1.00;;;;;;;11.73;55.41;98408.81;4168094;28;20207;-56
2022/05/29 01:58:34;;;;;;;1.13;1.08;;;;;;;11.87;55.40;98410.03;4166842;28;20210;-56
2022/05/29 02:00:36;;;;;;;0.95;0.82;;;;;;;11.65;55.82;98418.31;4152614;28;20359;-60
2022/05/29 02:02:43;;;;;;;0.73;0.73;;;;;;;11.53;56.03;98409.41;4166702;28;20257;-57
2022/05/29 02:04:48;;;;;;;1.90;1.77;;;;;;;11.46;56.07;98408.78;4150695;28;20205;-60
2022/05/29 02:09:10;;;;;;;0.80;0.80;;;;;;;11.51;56.29;98406.06;4155686;28;20688;-58
2022/05/29 02:11:32;;;;;;;3.67;1.13;;;;;;;11.39;56.35;98404.59;4150484;28;20238;-59
2022/05/29 02:13:57;;;;;;;0.90;0.90;;;;;;;11.57;56.27;98399.56;4152716;28;20251;-57
2022/05/29 02:16:03;;;;;;;1.02;0.80;;;;;;;11.54;56.11;98400.09;4165687;28;20210;-59
2022/05/29 02:18:10;;;;;;;0.73;0.73;;;;;;;11.63;55.68;98395.00;4151436;28;20221;-58
2022/05/29 02:20:26;;;;;;;4.32;1.25;;;;;;;11.68;56.18;98400.53;4166221;28;20232;-60
2022/05/29 02:22:28;;;;;;;0.57;0.57;;;;;;;11.67;55.85;98402.44;4149810;28;20236;-58
2022/05/29 02:24:50;;;;;;;1.02;0.88;;;;;;;11.66;55.64;98398.06;4167662;28;20704;-59
2022/05/29 02:26:56;;;;;;;1.20;1.20;;;;;;;11.52;55.92;98406.91;4149607;28;20292;-61
2022/05/29 02:29:07;;;;;;;1.08;0.98;;;;;;;11.27;56.42;98388.31;4153117;28;20604;-58
2022/05/29 02:31:33;;;;;;;0.85;0.82;;;;;;;11.13;56.62;98388.97;4150761;28;20224;-60
2022/05/29 02:33:43;;;;;;;1.02;0.93;;;;;;;11.26;56.31;98383.06;4151289;28;20201;-59
2022/05/29 02:36:20;;;;;;;1.27;0.70;;;;;;;11.24;56.21;98390.72;4155835;28;20284;-60
2022/05/29 02:38:32;;;;;;;1.02;0.90;;;;;;;11.11;56.96;98385.66;4157721;28;20229;-60
2022/05/29 02:41:06;;;;;;;1.42;1.33;;;;;;;11.26;56.42;98374.88;4166355;28;20230;-58
2022/05/29 02:43:11;;;;;;;0.80;0.80;;;;;;;11.38;56.34;98384.56;4145208;28;20692;-61
2022/05/29 02:45:19;;;;;;;0.65;0.65;;;;;;;11.40;56.31;98382.41;4150729;28;20215;-59
2022/05/29 02:47:36;;;;;;;0.60;0.60;;;;;;;11.46;56.41;98377.81;4169100;28;20195;-59
2022/05/29 02:50:02;;;;;;;4.32;0.80;;;;;;;11.48;56.64;98378.38;4155029;28;20397;-60
2022/05/29 02:52:08;;;;;;;0.60;0.60;;;;;;;11.45;56.74;98365.19;4152848;28;20669;-58
2022/05/29 02:54:11;;;;;;;0.65;0.63;;;;;;;11.43;56.63;98359.97;4152086;28;20655;-58
2022/05/29 02:56:14;;;;;;;0.90;0.73;;;;;;;11.22;56.51;98371.81;4152092;28;20209;-59
2022/05/29 02:58:27;;;;;;;0.70;0.70;;;;;;;11.12;57.08;98363.47;4153060;28;20784;-59
2022/05/29 03:00:39;;;;;;;1.15;0.80;;;;;;;11.17;57.13;98366.28;4152908;28;20236;-59
2022/05/29 03:02:52;;;;;;;0.85;0.70;;;;;;;11.23;56.91;98370.72;4153253;28;20209;-59
2022/05/29 03:05:05;;;;;;;1.02;1.02;;;;;;;11.27;56.98;98366.41;4169105;28;20636;-58
2022/05/29 03:07:26;;;;;;;2.95;0.90;;;;;;;11.29;57.35;98368.84;4153330;28;20204;-60
2022/05/29 03:09:42;;;;;;;0.77;0.70;;;;;;;11.30;57.16;98371.34;4153816;28;20205;-59
2022/05/29 03:11:45;;;;;;;0.98;0.93;;;;;;;11.40;57.51;98371.47;4154047;28;20221;-60
2022/05/29 03:13:55;;;;;;;1.02;0.85;;;;;;;11.25;57.64;98363.06;4170558;28;20683;-60
2022/05/29 03:16:11;;;;;;;1.02;0.80;;;;;;;11.05;57.82;98362.03;4152539;28;20292;-60
2022/05/29 03:18:20;;;;;;;0.70;0.70;;;;;;;11.01;58.38;98359.00;4152788;28;20339;-59
2022/05/29 03:20:34;;;;;;;1.08;0.95;;;;;;;10.99;58.24;98361.16;4151662;28;20306;-57
2022/05/29 03:22:38;;;;;;;0.90;0.90;;;;;;;10.83;58.59;98364.78;4154950;28;20211;-58
2022/05/29 03:25:03;;;;;;;1.17;1.05;;;;;;;10.86;58.48;98360.72;4150816;28;20209;-61
2022/05/29 03:27:29;;;;;;;0.80;0.80;;;;;;;10.91;58.56;98358.84;4154304;28;20603;-59
2022/05/29 03:29:37;;;;;;;1.00;1.00;;;;;;;10.94;58.74;98354.78;4154197;28;20223;-61
2022/05/29 03:31:40;;;;;;;0.80;0.80;;;;;;;10.90;58.61;98348.19;4152651;28;20229;-60
2022/05/29 03:33:45;;;;;;;1.15;1.05;;;;;;;10.87;58.95;98359.63;4153787;28;20320;-60
2022/05/29 03:36:04;;;;;;;0.95;0.73;;;;;;;10.88;58.96;98365.94;4152027;28;20206;-60
2022/05/29 03:38:05;;;;;;;1.17;1.13;;;;;;;10.90;58.65;98349.00;4169950;28;20818;-60
2022/05/29 03:40:07;;;;;;;0.77;0.77;;;;;;;10.91;58.76;98367.06;4156196;28;20204;-60
2022/05/29 03:42:09;;;;;;;2.60;0.90;;;;;;;10.93;58.77;98359.44;4156172;28;20661;-60
2022/05/29 03:44:16;;;;;;;3.10;1.38;;;;;;;10.93;58.66;98359.44;4153868;28;20215;-60
2022/05/29 03:46:18;;;;;;;0.90;0.90;;;;;;;10.90;58.84;98359.94;4153140;28;20287;-58
2022/05/29 03:48:20;;;;;;;0.85;0.85;;;;;;;10.96;58.80;98349.88;4157608;28;20212;-60
2022/05/29 03:50:23;;;;;;;1.10;0.85;;;;;;;10.94;58.81;98354.78;4153053;28;20324;-60
2022/05/29 03:52:25;;;;;;;1.50;0.70;;;;;;;10.96;58.68;98350.72;4154979;28;20885;-59
2022/05/29 03:54:26;;;;;;;0.75;0.75;;;;;;;10.98;58.68;98351.25;4153788;28;20207;-60
2022/05/29 03:56:27;;;;;;;0.80;0.80;;;;;;;10.88;59.06;98356.63;4155126;28;20324;-60
2022/05/29 03:58:29;;;;;;;0.70;0.70;;;;;;;10.73;59.04;98354.78;4151774;28;20623;-58
2022/05/29 04:00:30;;;;;;;0.98;0.98;;;;;;;10.62;59.40;98350.28;4156153;28;20238;-60
2022/05/29 04:02:32;;;;;;;4.05;0.90;;;;;;;10.42;59.78;98341.81;4152646;28;20212;-58
2022/05/29 04:04:34;;;;;;;3.92;0.88;;;;;;;10.40;59.96;98338.47;4152116;28;20209;-59
2022/05/29 04:06:37;;;;;;;1.10;1.10;;;;;;;10.37;60.07;98336.25;4152596;28;20823;-58
2022/05/29 04:13:19;;;;;;;1.55;1.30;;;;;;;10.17;60.76;98327.78;4150535;28;20213;-60
2022/05/29 04:15:20;;;;;;;1.10;0.98;;;;;;;10.12;60.57;98338.63;4153674;28;20220;-60
2022/05/29 04:17:22;;;;;;;2.78;1.00;;;;;;;10.15;60.70;98335.41;4153015;28;20220;-58
2022/05/29 04:19:23;;;;;;;0.60;0.60;;;;;;;10.32;60.68;98334.28;4153778;28;20202;-59
2022/05/29 04:21:25;;;;;;;2.08;1.08;;;;;;;10.40;60.26;98330.28;4160042;28;20710;-58
2022/05/29 04:23:27;;;;;;;1.70;1.15;;;;;;;10.45;60.38;98339.41;4157067;28;20655;-58
2022/05/29 04:25:28;;;;;;;0.93;0.93;;;;;;;10.37;60.46;98342.56;4152613;28;20209;-58
2022/05/29 04:27:30;;;;;;;9.13;1.20;;;;;;;10.40;60.04;98346.69;4165780;28;20204;-58
2022/05/29 04:29:32;;;;;;;0.90;0.90;;;;;;;10.52;60.21;98352.88;4155663;28;20213;-58
2022/05/29 04:31:34;;;;;;;1.05;0.75;;;;;;;10.41;60.40;98349.19;4151486;28;20275;-59
2022/05/29 04:33:35;;;;;;;0.95;0.95;;;;;;;10.55;60.16;98344.19;4153236;28;20669;-58
2022/05/29 04:35:41;;;;;;;1.05;0.93;;;;;;;10.51;60.13;98349.34;4152392;28;20200;-58
2022/05/29 04:37:43;;;;;;;1.55;1.45;;;;;;;10.60;60.02;98353.25;4153507;28;20224;-58
2022/05/29 04:39:44;;;;;;;0.85;0.85;;;;;;;10.44;60.70;98354.16;4151718;28;20292;-58
2022/05/29 04:41:46;;;;;;;2.28;0.90;;;;;;;10.63;60.10;98349.19;4152005;28;20772;-58
2022/05/29 04:43:47;;;;;;;1.10;1.00;;;;;;;10.82;59.86;98357.66;4150118;28;20607;-58
2022/05/29 04:45:54;;;;;;;1.02;0.82;;;;;;;10.77;59.86;98360.31;4155443;28;20287;-58
2022/05/29 04:47:56;;;;;;;0.77;0.77;;;;;;;10.87;59.65;98358.81;4154827;28;20207;-58
2022/05/29 04:49:58;;;;;;;1.45;1.45;;;;;;;11.01;59.61;98361.72;4153957;28;20819;-57
2022/05/29 04:52:00;;;;;;;2.50;1.27;;;;;;;11.01;59.42;98355.41;4154020;28;20205;-58
2022/05/29 04:54:01;;;;;;;6.30;2.03;;;;;;;11.01;59.47;98361.72;4149414;28;20617;-57
2022/05/29 04:56:03;;;;;;;1.88;0.90;;;;;;;10.96;59.38;98364.41;4152252;28;20209;-57
2022/05/29 04:58:05;;;;;;;3.40;1.10;;;;;;;10.99;59.25;98354.84;4151816;28;20722;-58
2022/05/29 05:00:07;;;;;;;2.67;0.95;;;;;;;10.89;59.82;98360.19;4152935;28;20250;-57
2022/05/29 05:02:09;;;;;;;2.28;1.13;;;;;;;11.01;59.43;98356.25;4151777;28;20201;-57
2022/05/29 05:04:10;;;;;;;5.38;1.90;;;;;;;10.83;59.41;98358.50;4151887;28;20304;-58
2022/05/29 05:06:12;;;;;;;1.15;0.93;;;;;;;10.68;59.85;98355.56;4150656;28;20202;-56
2022/05/29 05:08:13;;;;;;;0.95;0.95;;;;;;;10.81;59.89;98352.44;4153664;28;20204;-58
2022/05/29 05:10:17;;;;;;;3.20;0.90;;;;;;;10.84;60.07;98355.47;4149456;28;20231;-57
2022/05/29 05:12:18;;;;;;;1.48;0.80;;;;;;;10.90;59.86;98354.47;4152534;28;20719;-58
2022/05/29 05:14:21;;;;;;;0.80;0.80;;;;;;;11.06;59.93;98358.22;4152589;28;20293;-58
2022/05/29 05:16:22;;;;;;;2.05;0.70;;;;;;;11.20;59.43;98352.09;4151106;28;20197;-58
2022/05/29 05:18:24;;;;;;;1.08;1.00;;;;;;;11.29;59.54;98353.25;4152476;28;20264;-57
2022/05/29 05:20:26;;;;;;;1.85;0.80;;;;;;;11.41;59.33;98356.66;4153771;28;20220;-57
2022/05/29 05:22:27;;;;;;;1.05;1.05;;;;;;;11.49;59.20;98352.63;4151792;28;20210;-58
2022/05/29 05:24:29;;;;;;;2.05;1.02;;;;;;;11.52;58.76;98361.16;4152179;28;20216;-58
2022/05/29 05:26:31;;;;;;;0.75;0.75;;;;;;;11.71;58.66;98358.91;4152232;28;20296;-58
2022/05/29 05:28:32;;;;;;;0.75;0.60;;;;;;;11.86;59.27;98357.13;4151605;28;20207;-57
2022/05/29 05:30:34;;;;;;;1.20;1.00;;;;;;;12.01;58.91;98359.97;4151258;28;20247;-57
2022/05/29 05:32:35;;;;;;;2.25;0.98;;;;;;;12.04;57.88;98362.16;4152065;28;20205;-58
2022/05/29 05:34:37;;;;;;;1.17;0.80;;;;;;;12.10;58.09;98354.81;4150400;28;20220;-58
2022/05/29 05:36:38;;;;;;;1.02;0.95;;;;;;;11.78;57.90;98354.84;4154231;28;20205;-58
2022/05/29 05:38:40;;;;;;;1.35;1.35;;;;;;;11.73;58.26;98354.81;4152916;28;20221;-58
2022/05/29 05:40:42;;;;;;;0.98;0.98;;;;;;;11.43;58.29;98365.44;4151124;28;20225;-57
2022/05/29 05:42:43;;;;;;;0.75;0.75;;;;;;;11.15;58.87;98357.50;4153415;28;20287;-56
2022/05/29 05:44:46;;;;;;;0.95;0.93;;;;;;;11.18;58.99;98356.97;4150804;28;20201;-57
2022/05/29 05:46:53;;;;;;;0.65;0.65;;;;;;;11.13;59.30;98353.34;4153191;28;20224;-57
2022/05/29 05:49:02;;;;;;;0.73;0.73;;;;;;;11.23;59.55;98354.28;4152536;28;20196;-57
2022/05/29 05:51:04;;;;;;;1.17;0.52;;;;;;;11.29;59.31;98353.25;4149847;28;20259;-57
2022/05/29 05:53:06;;;;;;;1.67;1.05;;;;;;;11.23;59.60;98357.03;4152716;28;20231;-58
2022/05/29 05:55:12;;;;;;;1.00;1.00;;;;;;;11.39;59.67;98360.75;4149445;28;20214;-57
2022/05/29 05:57:20;;;;;;;0.90;0.90;;;;;;;11.36;59.44;98362.09;4150611;28;20295;-57
2022/05/29 05:59:21;;;;;;;2.00;0.70;;;;;;;11.27;59.61;98355.44;4152612;28;20587;-58
2022/05/29 06:01:23;;;;;;;0.70;0.70;;;;;;;11.39;59.75;98364.34;4148887;28;20236;-56
2022/05/29 06:03:31;;;;;;;1.13;1.10;;;;;;;11.45;60.18;98360.53;4150316;28;20243;-57
2022/05/29 06:05:33;;;;;;;1.00;1.00;;;;;;;11.51;59.33;98356.75;4150863;28;20204;-57
2022/05/29 06:07:34;;;;;;;0.75;0.75;;;;;;;11.57;59.24;98361.19;4151306;28;20205;-58
2022/05/29 06:09:36;;;;;;;0.85;0.85;;;;;;;11.76;59.63;98359.75;4152705;28;20220;-57
2022/05/29 06:11:39;;;;;;;1.30;1.20;;;;;;;11.92;59.91;98358.78;4151292;28;20224;-57
2022/05/29 06:13:41;;;;;;;2.67;2.55;;;;;;;12.09;59.45;98348.50;4149628;28;20258;-57
2022/05/29 06:15:46;;;;;;;1.25;0.80;;;;;;;12.25;58.35;98353.00;4148722;28;20198;-58
2022/05/29 06:17:48;;;;;;;1.55;0.88;;;;;;;12.39;57.88;98353.34;4149395;28;20300;-57
2022/05/29 06:19:49;;;;;;;1.08;0.90;;;;;;;12.60;57.72;98353.22;4150374;28;20205;-57
2022/05/29 06:21:51;;;;;;;1.98;1.00;;;;;;;12.39;57.82;98354.19;4154227;28;20383;-57
2022/05/29 06:23:52;;;;;;;4.03;0.90;;;;;;;12.56;57.31;98360.31;4154446;28;20749;-57
2022/05/29 06:25:54;;;;;;;1.55;1.23;;;;;;;12.73;57.23;98355.47;4154416;28;20664;-57
2022/05/29 06:27:56;;;;;;;1.50;1.40;;;;;;;12.76;57.09;98354.91;4155334;28;20583;-58
2022/05/29 06:29:57;;;;;;;0.60;0.60;;;;;;;12.68;57.58;98354.59;4151856;28;20232;-57
2022/05/29 06:32:04;;;;;;;2.40;1.02;;;;;;;12.94;56.83;98342.63;4156690;28;20201;-58
2022/05/29 06:34:06;;;;;;;1.45;1.30;;;;;;;12.94;56.71;98348.97;4169226;28;20282;-56
2022/05/29 06:36:12;;;;;;;1.50;1.00;;;;;;;12.69;56.87;98348.84;4152842;28;20201;-57
2022/05/29 06:38:13;;;;;;;0.50;0.50;;;;;;;12.48;57.79;98346.25;4153088;28;20208;-57
2022/05/29 06:40:15;;;;;;;1.17;0.82;;;;;;;12.28;57.48;98340.66;4155241;28;20615;-57
2022/05/29 06:42:16;;;;;;;0.73;0.70;;;;;;;12.37;58.03;98350.88;4154254;28;20308;-57
2022/05/29 06:44:18;;;;;;;0.77;0.60;;;;;;;12.41;57.63;98345.69;4156271;28;20200;-57
2022/05/29 06:46:21;;;;;;;1.52;1.42;;;;;;;12.73;57.54;98347.25;4153988;28;20213;-57
2022/05/29 06:48:22;;;;;;;0.60;0.60;;;;;;;12.98;56.17;98352.84;4156384;28;20201;-57
2022/05/29 06:50:24;;;;;;;0.95;0.93;;;;;;;12.75;56.52;98345.03;4152030;28;20312;-57
2022/05/29 06:52:32;;;;;;;0.55;0.55;;;;;;;13.15;56.30;98347.97;4152822;28;20201;-57
2022/05/29 06:54:34;;;;;;;0.70;0.60;;;;;;;13.44;55.45;98335.38;4154963;28;20906;-57
2022/05/29 06:56:36;;;;;;;0.90;0.90;;;;;;;13.57;54.79;98351.34;4153037;28;20301;-56
2022/05/29 06:58:37;;;;;;;1.08;0.70;;;;;;;13.28;54.24;98347.44;4152414;28;20232;-57
2022/05/29 07:07:40;;;;;;;4.63;0.95;;;;;;;13.69;52.69;98354.66;4154460;28;20299;-58
2022/05/29 07:09:42;;;;;;;0.70;0.70;;;;;;;13.56;52.71;98351.63;4153766;28;20210;-56
2022/05/29 07:11:44;;;;;;;1.40;0.60;;;;;;;13.84;53.87;98351.91;4154809;28;20224;-58
2022/05/29 07:13:46;;;;;;;1.08;0.55;;;;;;;14.31;53.13;98360.72;4168107;28;20211;-57
2022/05/29 07:15:47;;;;;;;0.50;0.50;;;;;;;14.59;51.91;98360.13;4148635;28;20205;-58
2022/05/29 07:17:49;;;;;;;0.98;0.98;;;;;;;14.81;52.23;98360.59;4153370;28;20724;-58
2022/05/29 07:19:51;;;;;;;1.75;0.85;;;;;;;14.94;51.69;98351.72;4154949;28;20703;-57
2022/05/29 07:21:56;;;;;;;0.70;0.60;;;;;;;14.80;51.49;98356.19;4158891;28;20315;-55
2022/05/29 07:23:58;;;;;;;0.60;0.60;;;;;;;14.57;52.17;98356.81;4151160;28;20680;-56
2022/05/29 07:26:00;;;;;;;0.82;0.70;;;;;;;14.60;51.19;98356.25;4157728;28;20324;-56
2022/05/29 07:28:02;;;;;;;1.73;1.63;;;;;;;14.13;50.96;98364.03;4152811;28;20208;-55
2022/05/29 07:30:05;;;;;;;0.70;0.70;;;;;;;13.72;51.95;98356.88;4152336;28;20232;-57
2022/05/29 07:32:07;;;;;;;1.13;0.60;;;;;;;13.45;52.74;98363.69;4168888;28;20279;-57
2022/05/29 07:34:09;;;;;;;1.40;1.30;;;;;;;13.49;53.16;98359.31;4124979;28;21719;-59
2022/05/29 07:36:11;;;;;;;1.02;0.82;;;;;;;13.54;53.07;98349.16;4154089;28;20681;-58
2022/05/29 07:38:13;;;;;;;3.17;1.00;;;;;;;13.21;52.02;98357.03;4150404;28;20291;-59
2022/05/29 07:40:14;;;;;;;0.70;0.70;;;;;;;13.76;53.17;98348.91;4153487;28;20200;-57
2022/05/29 07:44:37;;;;;;;0.50;0.50;;;;;;;14.38;50.85;98352.19;4157099;28;21230;-57
2022/05/29 07:46:38;;;;;;;0.60;0.60;;;;;;;14.37;52.14;98351.34;4154350;28;20293;-59
2022/05/29 07:48:40;;;;;;;1.15;0.80;;;;;;;14.37;51.96;98356.84;4153491;28;20213;-55
2022/05/29 07:50:42;;;;;;;1.15;1.05;;;;;;;14.37;52.04;98356.84;4155306;28;20235;-56
2022/05/29 07:52:44;;;;;;;1.85;0.73;;;;;;;14.18;51.96;98353.00;4154622;28;20319;-58
2022/05/29 07:54:46;;;;;;;0.55;0.55;;;;;;;13.74;51.99;98356.56;4152217;28;20768;-57
2022/05/29 07:56:48;;;;;;;1.00;0.50;;;;;;;13.89;52.48;98354.66;4150674;28;20213;-59
2022/05/29 07:58:49;;;;;;;1.45;0.70;;;;;;;13.87;52.49;98358.78;4154288;28;20295;-59
2022/05/29 08:00:51;;;;;;;0.60;0.60;;;;;;;13.84;52.65;98357.41;4154486;28;20221;-56
2022/05/29 08:02:52;;;;;;;0.68;0.68;;;;;;;13.82;52.23;98361.53;4154482;28;20196;-56
2022/05/29 08:04:59;;;;;;;0.40;0.40;;;;;;;13.67;51.75;98361.53;4153307;28;20342;-56
2022/05/29 08:07:01;;;;;;;1.05;0.70;;;;;;;13.73;52.44;98366.78;4154229;28;20259;-57
2022/05/29 08:09:03;;;;;;;0.70;0.70;;;;;;;13.78;52.18;98372.25;4154150;28;20204;-57
2022/05/29 08:11:05;;;;;;;2.58;0.88;;;;;;;13.84;51.93;98368.41;4152857;28;20703;-58
2022/05/29 08:13:07;;;;;;;1.13;1.13;;;;;;;13.87;52.15;98373.38;4153362;28;20228;-58
2022/05/29 08:15:10;;;;;;;2.40;0.50;;;;;;;13.84;52.02;98364.84;4165106;28;20209;-58
2022/05/29 08:17:12;;;;;;;0.82;0.73;;;;;;;13.79;51.62;98359.34;4151234;28;20630;-58
2022/05/29 08:19:13;;;;;;;0.77;0.77;;;;;;;13.77;51.85;98367.84;4151531;28;20252;-58
2022/05/29 08:21:15;;;;;;;1.13;0.90;;;;;;;13.95;51.74;98374.72;4153554;28;20256;-59
2022/05/29 08:23:18;;;;;;;3.00;0.63;;;;;;;13.99;50.95;98370.34;4153774;28;20257;-62
2022/05/29 08:32:21;;;;;;;0.60;0.60;;;;;;;14.82;49.93;98364.19;4150639;28;20226;-59
2022/05/29 08:34:23;;;;;;;0.80;0.75;;;;;;;14.83;49.02;98355.63;4153720;28;20289;-57
2022/05/29 08:36:25;;;;;;;3.47;0.73;;;;;;;15.13;48.72;98355.50;4148489;28;20209;-57
2022/05/29 08:38:28;;;;;;;1.40;0.70;;;;;;;15.65;50.32;98353.03;4149611;28;20255;-58
2022/05/29 08:40:31;;;;;;;0.63;0.50;;;;;;;15.80;48.14;98350.16;4152986;28;20251;-59
2022/05/29 08:42:33;;;;;;;0.77;0.77;;;;;;;15.95;48.47;98360.25;4151899;28;20592;-55
2022/05/29 08:44:48;;;;;;;0.73;0.40;;;;;;;15.84;46.69;98356.72;4151102;28;20304;-60
2022/05/29 08:47:00;;;;;;;0.55;0.50;;;;;;;15.80;48.07;98355.66;4160184;28;20205;-58
2022/05/29 08:49:02;;;;;;;0.57;0.57;;;;;;;16.11;47.20;98362.59;4152870;28;20296;-58
2022/05/29 08:51:24;;;;;;;1.17;0.50;;;;;;;16.01;44.90;98353.56;4151585;28;20255;-57
2022/05/29 08:53:39;;;;;;;1.30;0.77;;;;;;;15.60;44.96;98357.72;4155694;28;20205;-57
2022/05/29 08:56:05;;;;;;;0.68;0.52;;;;;;;15.48;43.78;98341.53;4153333;28;20244;-58
2022/05/29 08:58:37;;;;;;;0.75;0.63;;;;;;;15.89;43.60;98353.13;4167524;28;20217;-57
2022/05/29 09:01:10;;;;;;;1.45;0.90;;;;;;;16.53;44.43;98340.69;4146652;28;20229;-58
2022/05/29 09:03:39;;;;;;;0.65;0.60;;;;;;;16.29;43.84;98336.19;4152394;28;20295;-59
2022/05/29 09:05:45;;;;;;;0.60;0.60;;;;;;;16.14;43.75;98339.91;4152709;28;20291;-56
2022/05/29 09:07:49;;;;;;;4.15;0.57;;;;;;;16.24;44.94;98339.81;4153767;28;20292;-58
2022/05/29 09:09:54;;;;;;;3.92;0.73;;;;;;;16.13;45.09;98348.50;4166938;28;20594;-59
2022/05/29 09:11:59;;;;;;;0.45;0.45;;;;;;;15.94;45.42;98334.56;4167130;28;20579;-57
2022/05/29 09:14:08;;;;;;;1.90;0.47;;;;;;;15.78;45.25;98337.75;4152135;28;20232;-60
2022/05/29 09:16:15;;;;;;;0.40;0.40;;;;;;;16.14;44.78;98345.44;4165775;28;20629;-57
2022/05/29 09:18:36;;;;;;;0.70;0.70;;;;;;;16.57;43.77;98338.94;4169710;28;20196;-59
2022/05/29 09:21:10;;;;;;;0.40;0.40;;;;;;;16.22;44.46;98341.25;4153395;28;20250;-60
2022/05/29 09:23:17;;;;;;;2.25;1.77;;;;;;;16.52;44.82;98339.03;4168871;28;20211;-61
2022/05/29 09:25:37;;;;;;;0.38;0.35;;;;;;;16.67;44.07;98332.50;4170115;28;21123;-59
2022/05/29 09:27:43;;;;;;;2.83;0.50;;;;;;;17.13;45.02;98334.44;4152456;28;20205;-59
2022/05/29 09:29:45;;;;;;;0.50;0.47;;;;;;;17.46;43.03;98331.47;4151375;28;20215;-59
2022/05/29 09:31:46;;;;;;;0.52;0.40;;;;;;;17.50;44.18;98331.72;4157378;28;21238;-56
2022/05/29 09:33:48;;;;;;;0.70;0.70;;;;;;;17.23;43.65;98325.97;4166084;28;20640;-59
2022/05/29 09:35:56;;;;;;;1.25;0.40;;;;;;;17.84;42.93;98332.31;4152120;28;20198;-59
2022/05/29 09:38:03;;;;;;;0.52;0.40;;;;;;;18.48;44.01;98332.31;4150717;28;20207;-59
2022/05/29 09:40:10;;;;;;;0.30;0.30;;;;;;;17.64;41.14;98327.91;4151865;28;20228;-58
2022/05/29 09:42:15;;;;;;;0.60;0.50;;;;;;;17.22;43.41;98333.47;4151224;28;20234;-59
2022/05/29 09:44:19;;;;;;;0.52;0.40;;;;;;;17.87;42.42;98326.16;4167042;28;20230;-59
2022/05/29 09:46:22;;;;;;;0.35;0.35;;;;;;;18.40;42.75;98331.09;4152621;28;21236;-60
2022/05/29 09:50:54;;;;;;;0.82;0.50;;;;;;;18.70;42.79;98324.13;4151522;28;20681;-59
2022/05/29 09:52:56;;;;;;;1.02;0.43;;;;;;;18.91;41.38;98320.66;4153832;28;20649;-60
2022/05/29 09:55:22;;;;;;;1.23;0.50;;;;;;;18.63;41.46;98329.25;4152078;28;20209;-60
2022/05/29 09:57:27;;;;;;;0.98;0.35;;;;;;;18.10;40.68;98325.22;4154457;28;20207;-59
2022/05/29 09:59:28;;;;;;;0.98;0.50;;;;;;;18.55;41.61;98321.66;4152159;28;20231;-61
2022/05/29 10:01:34;;;;;;;1.15;0.65;;;;;;;18.54;40.49;98325.56;4153701;28;20217;-59
2022/05/29 10:03:43;;;;;;;0.50;0.30;;;;;;;19.09;40.18;98330.00;4165530;28;20209;-60
2022/05/29 10:05:45;;;;;;;0.30;0.30;;;;;;;18.90;38.57;98319.00;4150204;28;20226;-59
2022/05/29 10:07:47;;;;;;;0.55;0.52;;;;;;;18.71;38.58;98314.72;4165376;28;20618;-59
2022/05/29 10:10:35;;;;;;;0.47;0.30;;;;;;;18.66;37.40;98312.81;4167928;28;20215;-59
2022/05/29 10:12:44;;;;;;;0.40;0.40;;;;;;;18.70;38.53;98308.31;4145087;28;20697;-61
2022/05/29 10:14:46;;;;;;;1.23;1.05;;;;;;;19.01;39.07;98314.06;4167602;28;20659;-59
2022/05/29 10:16:49;;;;;;;0.77;0.47;;;;;;;19.08;38.67;98311.69;4151225;28;20207;-59
2022/05/29 10:18:51;;;;;;;0.65;0.40;;;;;;;18.92;39.07;98304.84;4150005;28;20244;-59
2022/05/29 10:20:52;;;;;;;0.82;0.40;;;;;;;18.69;39.47;98305.84;4152597;28;20315;-58